Details From YMAV - Avalon
To YBNA - Ballina/Byron Gateway
Flight Number -
Tags generated
Created
Modified
Stats Distance 721 nm / 1,335 km
Max Altitude 35,000 ft / 10,668 m
Waypoints 7
Social Downloads 1
Likes 0
Share VATSIM

Download

Looking for another format? Having issues loading an existing format? Contact us
Advertisement - Login to hide

Notes

Basic altitude profile: - Ascent Rate: 2500ft/min - Ascent Speed: 250kts - Cruise Altitude: 35000ft - Cruise Speed: 420kts - Descent Rate: 1500ft/min - Descent Speed: 250kts Options: - Use NATs: yes - Use PACOTS: yes - Use low airways: yes - Use high airways: yes

Route

YMAV NONIX H66 TW Y23 BERNI YBNA

ID Type Via Altitude Latitude Longitude Leg Dist Tot Dist Heading (true) Name
O YMAV APT - 0 ft / 0 m -38.04084˚ 144.46713˚ - 0 nm - Avalon
NONIX FIX - 23,500 ft / 7,163 m -37.07611˚ 145.24722˚ 68 nm 68 nm 33° / 32° -
KACEY FIX H66 (AWY-HI) 35,000 ft / 10,668 m -35.44361˚ 146.89222˚ 126 nm 195 nm 40° / 39° -
MDG VOR H66 (AWY-HI) 35,000 ft / 10,668 m -32.56093˚ 149.59369˚ 219 nm 414 nm 39° / 37° MUDGEE VOR
TW VOR H66 (AWY-HI) 35,000 ft / 10,668 m -31.06620˚ 150.83002˚ 109 nm 524 nm 35° / 35° TAMWORTH VOR-DME
BERNI FIX Y23 (AWY-LO) 17,000 ft / 5,182 m -28.83833˚ 153.46528˚ 191 nm 715 nm 46° / 45° -
O YBNA APT - 0 ft / 0 m -28.83331˚ 153.56121˚ 5 nm 720 nm 87° / 87° Ballina/Byron Gateway

Altitude Profile

Advertisement - Login to hide

Weather


0- 5 10 15 20 25 30 35+ Temperature / ° C

Clouds and Precipitation
Forecast for 2017-12-13 18:00 UTC. Updated 2 hours ago

Ground ~20,000 ft ~40,000 ft Winds

YMAV

Details ICAO YMAV (AVV)
Name Avalon
Region Australia
Timezone Australia/Melbourne (UTC+11.0)
Stats Elevation 35 ft / 11 m (AMSL)
Location -38.040844° 144.467132°
Runways 1
Magnetic Variation 11.473° E

METAR

YMAV 131500Z AUTO 02006KT 9999 // NCD 23/10 Q1003

Decode

TAF

TAF YMAV 131106Z 1312/1412 27015G25KT CAVOK FM131300 VRB05KT CAVOK FM131800 25012KT 9999 BKN015 FM140200 17016G27KT 9999 FEW020 BKN030 BECMG 1409/1411 19008KT 9999 FEW040

Decode

Departure Runways

ID Width Length Bearing (true) Bearing (mag) Surface Threshold Offset Overrun Length
18 148 ft / 45 m 10,010 ft / 3,051 m 187.50° 176.03° Asphalt 0 ft / 0 m 797 ft / 243 m
36 148 ft / 45 m 10,010 ft / 3,051 m 7.50° 356.03° Asphalt 0 ft / 0 m 1,010 ft / 308 m

YBNA

Details ICAO YBNA (BNK)
Name Ballina/Byron Gateway
Region Australia
Timezone Australia/Sydney (UTC+11.0)
Stats Elevation 6 ft / 2 m (AMSL)
Location -28.833306° 153.561207°
Runways 1
Magnetic Variation 11.556° E

METAR

YBNA 131400Z AUTO 00000KT 9999 // NCD 18/17 Q1014

Decode

TAF

Not found

Destination Runways

ID Width Length Bearing (true) Bearing (mag) Surface Threshold Offset Overrun Length
06 98 ft / 30 m 6,241 ft / 1,902 m 73.50° 61.94° Asphalt 0 ft / 0 m 0 ft / 0 m
24 98 ft / 30 m 6,241 ft / 1,902 m 253.50° 241.94° Asphalt 0 ft / 0 m 0 ft / 0 m